sensor_id;sensor_type;location;lat;lon;timestamp;P1;durP1;ratioP1;P2;durP2;ratioP2
51272;SDS011;37345;59.828;30.328;2022-10-18T00:00:24;5.83;;;2.73;;
51272;SDS011;37345;59.828;30.328;2022-10-18T00:02:50;6.10;;;2.53;;
51272;SDS011;37345;59.828;30.328;2022-10-18T00:05:16;6.75;;;2.67;;
51272;SDS011;37345;59.828;30.328;2022-10-18T00:07:42;5.85;;;2.05;;
51272;SDS011;37345;59.828;30.328;2022-10-18T00:10:09;5.93;;;1.98;;
51272;SDS011;37345;59.828;30.328;2022-10-18T00:12:35;9.50;;;1.80;;
51272;SDS011;37345;59.828;30.328;2022-10-18T00:15:02;7.75;;;2.45;;
51272;SDS011;37345;59.828;30.328;2022-10-18T00:17:29;3.53;;;1.02;;
51272;SDS011;37345;59.828;30.328;2022-10-18T00:19:55;7.05;;;1.55;;
51272;SDS011;37345;59.828;30.328;2022-10-18T00:22:21;7.63;;;1.80;;
51272;SDS011;37345;59.828;30.328;2022-10-18T00:24:47;4.60;;;2.03;;
51272;SDS011;37345;59.828;30.328;2022-10-18T00:27:13;7.18;;;2.20;;
51272;SDS011;37345;59.828;30.328;2022-10-18T00:29:39;6.40;;;1.77;;
51272;SDS011;37345;59.828;30.328;2022-10-18T00:32:06;5.18;;;2.30;;
51272;SDS011;37345;59.828;30.328;2022-10-18T00:34:32;3.90;;;1.92;;
51272;SDS011;37345;59.828;30.328;2022-10-18T00:36:58;8.40;;;2.05;;
51272;SDS011;37345;59.828;30.328;2022-10-18T00:39:24;5.97;;;1.98;;
51272;SDS011;37345;59.828;30.328;2022-10-18T00:41:50;9.15;;;2.58;;
51272;SDS011;37345;59.828;30.328;2022-10-18T00:46:43;4.28;;;2.30;;
51272;SDS011;37345;59.828;30.328;2022-10-18T00:49:11;6.40;;;1.90;;
51272;SDS011;37345;59.828;30.328;2022-10-18T00:54:23;6.50;;;2.13;;
51272;SDS011;37345;59.828;30.328;2022-10-18T00:56:49;5.03;;;2.38;;
51272;SDS011;37345;59.828;30.328;2022-10-18T00:59:16;6.10;;;2.15;;
51272;SDS011;37345;59.828;30.328;2022-10-18T01:01:43;5.47;;;2.03;;
51272;SDS011;37345;59.828;30.328;2022-10-18T01:04:09;6.93;;;1.67;;
51272;SDS011;37345;59.828;30.328;2022-10-18T01:06:42;6.57;;;1.45;;
51272;SDS011;37345;59.828;30.328;2022-10-18T01:09:18;4.43;;;1.30;;
51272;SDS011;37345;59.828;30.328;2022-10-18T01:17:01;3.92;;;1.30;;
51272;SDS011;37345;59.828;30.328;2022-10-18T01:22:05;4.75;;;1.50;;
51272;SDS011;37345;59.828;30.328;2022-10-18T01:24:42;4.20;;;0.80;;
51272;SDS011;37345;59.828;30.328;2022-10-18T01:29:51;5.15;;;1.50;;
51272;SDS011;37345;59.828;30.328;2022-10-18T01:32:28;4.80;;;1.13;;
51272;SDS011;37345;59.828;30.328;2022-10-18T01:34:58;5.75;;;1.33;;
51272;SDS011;37345;59.828;30.328;2022-10-18T01:37:26;4.60;;;1.23;;
51272;SDS011;37345;59.828;30.328;2022-10-18T01:39:54;3.93;;;1.20;;
51272;SDS011;37345;59.828;30.328;2022-10-18T01:42:21;3.67;;;1.35;;
51272;SDS011;37345;59.828;30.328;2022-10-18T01:44:48;5.68;;;1.27;;
51272;SDS011;37345;59.828;30.328;2022-10-18T01:47:15;2.83;;;1.30;;
51272;SDS011;37345;59.828;30.328;2022-10-18T01:49:41;4.53;;;1.23;;
51272;SDS011;37345;59.828;30.328;2022-10-18T01:52:09;4.55;;;1.13;;
51272;SDS011;37345;59.828;30.328;2022-10-18T01:54:38;5.30;;;1.33;;
51272;SDS011;37345;59.828;30.328;2022-10-18T01:57:12;3.40;;;1.30;;
51272;SDS011;37345;59.828;30.328;2022-10-18T02:00:05;6.00;;;1.38;;
51272;SDS011;37345;59.828;30.328;2022-10-18T02:08:31;5.55;;;1.17;;
51272;SDS011;37345;59.828;30.328;2022-10-18T02:10:41;6.93;;;1.50;;
51272;SDS011;37345;59.828;30.328;2022-10-18T02:13:10;8.55;;;1.92;;
51272;SDS011;37345;59.828;30.328;2022-10-18T02:15:38;6.18;;;1.55;;
51272;SDS011;37345;59.828;30.328;2022-10-18T02:18:16;9.52;;;2.20;;
51272;SDS011;37345;59.828;30.328;2022-10-18T02:20:43;6.07;;;2.10;;
51272;SDS011;37345;59.828;30.328;2022-10-18T02:23:10;5.93;;;2.10;;
51272;SDS011;37345;59.828;30.328;2022-10-18T02:25:38;10.70;;;2.20;;
51272;SDS011;37345;59.828;30.328;2022-10-18T02:28:04;6.80;;;1.77;;
51272;SDS011;37345;59.828;30.328;2022-10-18T02:30:52;4.93;;;2.00;;
51272;SDS011;37345;59.828;30.328;2022-10-18T02:36:02;7.82;;;2.40;;
51272;SDS011;37345;59.828;30.328;2022-10-18T02:38:30;7.72;;;1.90;;
51272;SDS011;37345;59.828;30.328;2022-10-18T02:40:57;7.93;;;2.53;;
51272;SDS011;37345;59.828;30.328;2022-10-18T02:43:23;6.25;;;2.88;;
51272;SDS011;37345;59.828;30.328;2022-10-18T02:45:49;7.72;;;2.65;;
51272;SDS011;37345;59.828;30.328;2022-10-18T02:48:15;8.50;;;3.30;;
51272;SDS011;37345;59.828;30.328;2022-10-18T02:50:42;9.10;;;4.10;;
51272;SDS011;37345;59.828;30.328;2022-10-18T02:53:08;9.73;;;3.45;;
51272;SDS011;37345;59.828;30.328;2022-10-18T02:55:34;10.37;;;3.83;;
51272;SDS011;37345;59.828;30.328;2022-10-18T02:58:00;7.80;;;3.58;;
51272;SDS011;37345;59.828;30.328;2022-10-18T03:00:26;8.75;;;3.83;;
51272;SDS011;37345;59.828;30.328;2022-10-18T03:02:52;12.43;;;4.50;;
51272;SDS011;37345;59.828;30.328;2022-10-18T03:05:18;10.43;;;4.60;;
51272;SDS011;37345;59.828;30.328;2022-10-18T03:07:45;11.70;;;4.80;;
51272;SDS011;37345;59.828;30.328;2022-10-18T03:10:11;11.00;;;5.13;;
51272;SDS011;37345;59.828;30.328;2022-10-18T03:12:37;14.43;;;5.65;;
51272;SDS011;37345;59.828;30.328;2022-10-18T03:15:03;10.50;;;4.73;;
51272;SDS011;37345;59.828;30.328;2022-10-18T03:17:29;11.88;;;5.63;;
51272;SDS011;37345;59.828;30.328;2022-10-18T03:19:55;13.95;;;6.10;;
51272;SDS011;37345;59.828;30.328;2022-10-18T03:22:21;12.68;;;5.93;;
51272;SDS011;37345;59.828;30.328;2022-10-18T03:24:49;13.73;;;6.03;;
51272;SDS011;37345;59.828;30.328;2022-10-18T03:27:15;12.35;;;5.47;;
51272;SDS011;37345;59.828;30.328;2022-10-18T03:29:41;13.10;;;5.63;;
51272;SDS011;37345;59.828;30.328;2022-10-18T03:32:07;13.20;;;6.13;;
51272;SDS011;37345;59.828;30.328;2022-10-18T03:34:33;12.90;;;5.97;;
51272;SDS011;37345;59.828;30.328;2022-10-18T03:36:59;14.27;;;6.32;;
51272;SDS011;37345;59.828;30.328;2022-10-18T03:39:26;12.32;;;5.80;;
51272;SDS011;37345;59.828;30.328;2022-10-18T03:41:52;14.43;;;6.35;;
51272;SDS011;37345;59.828;30.328;2022-10-18T03:44:18;16.13;;;6.65;;
51272;SDS011;37345;59.828;30.328;2022-10-18T03:46:44;12.57;;;6.63;;
51272;SDS011;37345;59.828;30.328;2022-10-18T03:49:10;16.88;;;6.97;;
51272;SDS011;37345;59.828;30.328;2022-10-18T03:51:36;17.60;;;7.70;;
51272;SDS011;37345;59.828;30.328;2022-10-18T03:54:02;17.95;;;8.07;;
51272;SDS011;37345;59.828;30.328;2022-10-18T03:56:29;18.60;;;7.82;;
51272;SDS011;37345;59.828;30.328;2022-10-18T03:58:55;14.50;;;6.72;;
51272;SDS011;37345;59.828;30.328;2022-10-18T04:01:21;15.53;;;6.77;;
51272;SDS011;37345;59.828;30.328;2022-10-18T04:03:47;11.32;;;6.43;;
51272;SDS011;37345;59.828;30.328;2022-10-18T04:06:13;14.90;;;7.22;;
51272;SDS011;37345;59.828;30.328;2022-10-18T04:08:39;13.40;;;6.30;;
51272;SDS011;37345;59.828;30.328;2022-10-18T04:11:06;14.00;;;6.68;;
51272;SDS011;37345;59.828;30.328;2022-10-18T04:13:36;12.63;;;6.40;;
51272;SDS011;37345;59.828;30.328;2022-10-18T04:16:02;14.65;;;6.50;;
51272;SDS011;37345;59.828;30.328;2022-10-18T04:18:28;12.60;;;6.10;;
51272;SDS011;37345;59.828;30.328;2022-10-18T04:20:54;16.23;;;6.20;;
51272;SDS011;37345;59.828;30.328;2022-10-18T04:23:21;17.77;;;7.00;;
51272;SDS011;37345;59.828;30.328;2022-10-18T04:25:47;15.82;;;6.82;;
51272;SDS011;37345;59.828;30.328;2022-10-18T04:28:13;14.07;;;7.10;;
51272;SDS011;37345;59.828;30.328;2022-10-18T04:30:39;12.80;;;6.00;;
51272;SDS011;37345;59.828;30.328;2022-10-18T04:33:05;15.57;;;5.75;;
51272;SDS011;37345;59.828;30.328;2022-10-18T04:35:31;14.02;;;6.15;;
51272;SDS011;37345;59.828;30.328;2022-10-18T04:37:57;12.40;;;5.50;;
51272;SDS011;37345;59.828;30.328;2022-10-18T04:40:24;10.93;;;5.13;;
51272;SDS011;37345;59.828;30.328;2022-10-18T04:42:50;15.80;;;5.60;;
51272;SDS011;37345;59.828;30.328;2022-10-18T04:45:16;13.93;;;5.27;;
51272;SDS011;37345;59.828;30.328;2022-10-18T04:47:42;13.95;;;5.45;;
51272;SDS011;37345;59.828;30.328;2022-10-18T04:50:08;14.23;;;5.45;;
51272;SDS011;37345;59.828;30.328;2022-10-18T04:52:34;11.73;;;4.85;;
51272;SDS011;37345;59.828;30.328;2022-10-18T04:55:00;11.15;;;4.65;;
51272;SDS011;37345;59.828;30.328;2022-10-18T04:57:26;13.32;;;5.10;;
51272;SDS011;37345;59.828;30.328;2022-10-18T04:59:52;14.52;;;5.57;;
51272;SDS011;37345;59.828;30.328;2022-10-18T05:02:18;10.95;;;4.20;;
51272;SDS011;37345;59.828;30.328;2022-10-18T05:04:45;8.73;;;4.10;;
51272;SDS011;37345;59.828;30.328;2022-10-18T05:07:11;8.88;;;4.47;;
51272;SDS011;37345;59.828;30.328;2022-10-18T05:09:37;8.38;;;3.65;;
51272;SDS011;37345;59.828;30.328;2022-10-18T05:12:03;6.95;;;3.60;;
51272;SDS011;37345;59.828;30.328;2022-10-18T05:14:32;8.38;;;2.92;;
51272;SDS011;37345;59.828;30.328;2022-10-18T05:16:58;10.05;;;3.42;;
51272;SDS011;37345;59.828;30.328;2022-10-18T05:19:24;7.43;;;2.75;;
51272;SDS011;37345;59.828;30.328;2022-10-18T05:21:50;6.20;;;2.63;;
51272;SDS011;37345;59.828;30.328;2022-10-18T05:24:16;6.57;;;2.47;;
51272;SDS011;37345;59.828;30.328;2022-10-18T05:26:43;3.88;;;2.35;;
51272;SDS011;37345;59.828;30.328;2022-10-18T05:29:09;6.13;;;2.25;;
51272;SDS011;37345;59.828;30.328;2022-10-18T05:31:35;8.30;;;2.37;;
51272;SDS011;37345;59.828;30.328;2022-10-18T05:34:01;7.05;;;2.15;;
51272;SDS011;37345;59.828;30.328;2022-10-18T05:36:28;8.25;;;2.25;;
51272;SDS011;37345;59.828;30.328;2022-10-18T05:38:54;4.10;;;1.90;;
51272;SDS011;37345;59.828;30.328;2022-10-18T05:41:20;5.95;;;2.33;;
51272;SDS011;37345;59.828;30.328;2022-10-18T05:43:46;5.53;;;2.00;;
51272;SDS011;37345;59.828;30.328;2022-10-18T05:46:12;8.57;;;1.90;;
51272;SDS011;37345;59.828;30.328;2022-10-18T05:48:39;4.90;;;2.00;;
51272;SDS011;37345;59.828;30.328;2022-10-18T05:51:05;7.50;;;1.83;;
51272;SDS011;37345;59.828;30.328;2022-10-18T05:53:31;7.15;;;2.10;;
51272;SDS011;37345;59.828;30.328;2022-10-18T05:56:00;5.40;;;1.80;;
51272;SDS011;37345;59.828;30.328;2022-10-18T05:58:27;6.65;;;2.15;;
51272;SDS011;37345;59.828;30.328;2022-10-18T06:00:53;6.15;;;2.20;;
51272;SDS011;37345;59.828;30.328;2022-10-18T06:03:22;8.80;;;2.10;;
51272;SDS011;37345;59.828;30.328;2022-10-18T06:05:48;4.75;;;1.92;;
51272;SDS011;37345;59.828;30.328;2022-10-18T06:08:14;8.13;;;2.25;;
51272;SDS011;37345;59.828;30.328;2022-10-18T06:10:40;5.07;;;2.30;;
51272;SDS011;37345;59.828;30.328;2022-10-18T06:13:06;6.88;;;2.45;;
51272;SDS011;37345;59.828;30.328;2022-10-18T06:15:32;6.45;;;2.33;;
51272;SDS011;37345;59.828;30.328;2022-10-18T06:17:59;7.88;;;2.92;;
51272;SDS011;37345;59.828;30.328;2022-10-18T06:20:25;5.35;;;2.20;;
51272;SDS011;37345;59.828;30.328;2022-10-18T06:22:51;6.60;;;2.45;;
51272;SDS011;37345;59.828;30.328;2022-10-18T06:25:17;7.88;;;2.70;;
51272;SDS011;37345;59.828;30.328;2022-10-18T06:27:43;7.43;;;2.85;;
51272;SDS011;37345;59.828;30.328;2022-10-18T06:30:10;10.18;;;2.60;;
51272;SDS011;37345;59.828;30.328;2022-10-18T06:32:36;5.10;;;2.40;;
51272;SDS011;37345;59.828;30.328;2022-10-18T06:35:02;6.70;;;2.73;;
51272;SDS011;37345;59.828;30.328;2022-10-18T06:37:28;5.30;;;2.40;;
51272;SDS011;37345;59.828;30.328;2022-10-18T06:39:55;8.53;;;2.87;;
51272;SDS011;37345;59.828;30.328;2022-10-18T06:42:21;8.50;;;3.47;;
51272;SDS011;37345;59.828;30.328;2022-10-18T06:44:47;6.75;;;2.60;;
51272;SDS011;37345;59.828;30.328;2022-10-18T06:47:13;6.28;;;2.67;;
51272;SDS011;37345;59.828;30.328;2022-10-18T06:49:39;6.38;;;2.78;;
51272;SDS011;37345;59.828;30.328;2022-10-18T06:52:06;6.75;;;2.83;;
51272;SDS011;37345;59.828;30.328;2022-10-18T06:54:32;7.32;;;2.95;;
51272;SDS011;37345;59.828;30.328;2022-10-18T06:56:58;7.60;;;3.40;;
51272;SDS011;37345;59.828;30.328;2022-10-18T06:59:26;9.35;;;3.40;;
51272;SDS011;37345;59.828;30.328;2022-10-18T07:01:55;7.17;;;3.77;;
51272;SDS011;37345;59.828;30.328;2022-10-18T07:04:21;7.80;;;4.22;;
51272;SDS011;37345;59.828;30.328;2022-10-18T07:06:48;10.48;;;4.60;;
51272;SDS011;37345;59.828;30.328;2022-10-18T07:09:14;9.00;;;3.92;;
51272;SDS011;37345;59.828;30.328;2022-10-18T07:11:40;9.73;;;4.32;;
51272;SDS011;37345;59.828;30.328;2022-10-18T07:14:06;9.93;;;4.07;;
51272;SDS011;37345;59.828;30.328;2022-10-18T07:16:33;8.38;;;3.72;;
51272;SDS011;37345;59.828;30.328;2022-10-18T07:19:00;9.20;;;4.20;;
51272;SDS011;37345;59.828;30.328;2022-10-18T07:21:26;9.63;;;4.00;;
51272;SDS011;37345;59.828;30.328;2022-10-18T07:23:52;13.73;;;4.20;;
51272;SDS011;37345;59.828;30.328;2022-10-18T07:28:47;5.97;;;3.95;;
51272;SDS011;37345;59.828;30.328;2022-10-18T07:31:14;9.55;;;4.00;;
51272;SDS011;37345;59.828;30.328;2022-10-18T07:33:40;8.93;;;4.18;;
51272;SDS011;37345;59.828;30.328;2022-10-18T07:36:10;6.55;;;3.90;;
51272;SDS011;37345;59.828;30.328;2022-10-18T07:38:39;9.23;;;3.40;;
51272;SDS011;37345;59.828;30.328;2022-10-18T07:41:05;9.37;;;4.00;;
51272;SDS011;37345;59.828;30.328;2022-10-18T07:43:33;7.60;;;3.75;;
51272;SDS011;37345;59.828;30.328;2022-10-18T07:45:59;7.13;;;3.40;;
51272;SDS011;37345;59.828;30.328;2022-10-18T07:48:26;10.02;;;3.95;;
51272;SDS011;37345;59.828;30.328;2022-10-18T07:50:53;9.27;;;3.50;;
51272;SDS011;37345;59.828;30.328;2022-10-18T07:53:19;8.55;;;3.22;;
51272;SDS011;37345;59.828;30.328;2022-10-18T07:55:58;7.63;;;3.10;;
51272;SDS011;37345;59.828;30.328;2022-10-18T07:58:24;6.47;;;2.85;;
51272;SDS011;37345;59.828;30.328;2022-10-18T08:00:51;6.80;;;2.92;;
51272;SDS011;37345;59.828;30.328;2022-10-18T08:03:19;5.30;;;2.88;;
51272;SDS011;37345;59.828;30.328;2022-10-18T08:05:52;5.70;;;3.15;;
51272;SDS011;37345;59.828;30.328;2022-10-18T08:08:19;5.30;;;2.85;;
51272;SDS011;37345;59.828;30.328;2022-10-18T08:10:45;7.03;;;3.45;;
51272;SDS011;37345;59.828;30.328;2022-10-18T08:13:12;5.53;;;2.88;;
51272;SDS011;37345;59.828;30.328;2022-10-18T08:15:38;4.80;;;2.63;;
51272;SDS011;37345;59.828;30.328;2022-10-18T08:18:04;6.65;;;3.42;;
51272;SDS011;37345;59.828;30.328;2022-10-18T08:20:33;7.55;;;3.83;;
51272;SDS011;37345;59.828;30.328;2022-10-18T08:23:01;8.45;;;3.13;;
51272;SDS011;37345;59.828;30.328;2022-10-18T08:25:27;7.03;;;3.20;;
51272;SDS011;37345;59.828;30.328;2022-10-18T08:28:03;5.30;;;2.92;;
51272;SDS011;37345;59.828;30.328;2022-10-18T08:30:29;6.15;;;3.00;;
51272;SDS011;37345;59.828;30.328;2022-10-18T08:32:55;6.97;;;3.20;;
51272;SDS011;37345;59.828;30.328;2022-10-18T08:35:21;4.97;;;2.90;;
51272;SDS011;37345;59.828;30.328;2022-10-18T08:37:47;8.23;;;3.25;;
51272;SDS011;37345;59.828;30.328;2022-10-18T08:40:14;4.77;;;2.73;;
51272;SDS011;37345;59.828;30.328;2022-10-18T08:45:16;6.17;;;3.20;;
51272;SDS011;37345;59.828;30.328;2022-10-18T08:47:43;8.63;;;3.30;;
51272;SDS011;37345;59.828;30.328;2022-10-18T08:50:14;6.47;;;2.83;;
51272;SDS011;37345;59.828;30.328;2022-10-18T08:57:35;5.65;;;3.22;;
51272;SDS011;37345;59.828;30.328;2022-10-18T09:00:04;6.55;;;2.95;;
51272;SDS011;37345;59.828;30.328;2022-10-18T09:10:40;7.40;;;3.63;;
51272;SDS011;37345;59.828;30.328;2022-10-18T09:13:20;6.37;;;3.70;;
51272;SDS011;37345;59.828;30.328;2022-10-18T09:15:55;5.47;;;3.30;;
51272;SDS011;37345;59.828;30.328;2022-10-18T09:20:52;8.82;;;3.90;;
51272;SDS011;37345;59.828;30.328;2022-10-18T09:23:20;7.78;;;4.65;;
51272;SDS011;37345;59.828;30.328;2022-10-18T09:25:48;8.20;;;4.80;;
51272;SDS011;37345;59.828;30.328;2022-10-18T09:35:51;5.57;;;3.10;;
51272;SDS011;37345;59.828;30.328;2022-10-18T09:38:20;5.47;;;2.30;;
51272;SDS011;37345;59.828;30.328;2022-10-18T09:40:52;4.07;;;2.17;;
51272;SDS011;37345;59.828;30.328;2022-10-18T09:43:23;7.10;;;2.75;;
51272;SDS011;37345;59.828;30.328;2022-10-18T09:45:51;5.95;;;2.45;;
51272;SDS011;37345;59.828;30.328;2022-10-18T09:48:26;5.18;;;2.22;;
51272;SDS011;37345;59.828;30.328;2022-10-18T09:51:02;4.43;;;1.73;;
51272;SDS011;37345;59.828;30.328;2022-10-18T09:53:34;3.83;;;2.03;;
51272;SDS011;37345;59.828;30.328;2022-10-18T10:01:03;4.60;;;1.90;;
51272;SDS011;37345;59.828;30.328;2022-10-18T10:03:29;2.80;;;1.60;;
51272;SDS011;37345;59.828;30.328;2022-10-18T10:06:29;3.23;;;1.50;;
51272;SDS011;37345;59.828;30.328;2022-10-18T10:08:52;2.25;;;1.40;;
51272;SDS011;37345;59.828;30.328;2022-10-18T10:11:26;3.35;;;1.73;;
51272;SDS011;37345;59.828;30.328;2022-10-18T10:13:55;2.53;;;1.38;;
51272;SDS011;37345;59.828;30.328;2022-10-18T10:16:22;2.97;;;1.13;;
51272;SDS011;37345;59.828;30.328;2022-10-18T10:18:51;2.90;;;1.40;;
51272;SDS011;37345;59.828;30.328;2022-10-18T10:21:18;2.10;;;1.17;;
51272;SDS011;37345;59.828;30.328;2022-10-18T10:26:22;2.90;;;1.30;;
51272;SDS011;37345;59.828;30.328;2022-10-18T10:28:48;3.83;;;1.30;;
51272;SDS011;37345;59.828;30.328;2022-10-18T10:31:16;1.77;;;1.00;;
51272;SDS011;37345;59.828;30.328;2022-10-18T10:33:44;1.85;;;0.70;;
51272;SDS011;37345;59.828;30.328;2022-10-18T10:36:17;1.67;;;0.80;;
51272;SDS011;37345;59.828;30.328;2022-10-18T10:38:44;3.07;;;0.80;;
51272;SDS011;37345;59.828;30.328;2022-10-18T10:41:28;1.00;;;0.57;;
51272;SDS011;37345;59.828;30.328;2022-10-18T10:43:54;1.70;;;0.90;;
51272;SDS011;37345;59.828;30.328;2022-10-18T10:46:20;1.77;;;0.80;;
51272;SDS011;37345;59.828;30.328;2022-10-18T10:48:54;1.13;;;0.77;;
51272;SDS011;37345;59.828;30.328;2022-10-18T10:51:36;1.27;;;0.60;;
51272;SDS011;37345;59.828;30.328;2022-10-18T10:54:04;1.98;;;0.60;;
51272;SDS011;37345;59.828;30.328;2022-10-18T10:56:48;1.73;;;0.80;;
51272;SDS011;37345;59.828;30.328;2022-10-18T10:59:16;1.85;;;0.77;;
51272;SDS011;37345;59.828;30.328;2022-10-18T11:01:43;1.63;;;0.60;;
51272;SDS011;37345;59.828;30.328;2022-10-18T11:04:27;3.03;;;0.50;;
51272;SDS011;37345;59.828;30.328;2022-10-18T11:07:02;2.85;;;0.60;;
51272;SDS011;37345;59.828;30.328;2022-10-18T11:12:00;1.30;;;0.60;;
51272;SDS011;37345;59.828;30.328;2022-10-18T11:14:28;1.40;;;0.32;;
51272;SDS011;37345;59.828;30.328;2022-10-18T11:19:33;2.35;;;0.95;;
51272;SDS011;37345;59.828;30.328;2022-10-18T11:22:00;2.17;;;0.80;;
51272;SDS011;37345;59.828;30.328;2022-10-18T11:24:29;2.97;;;1.00;;
51272;SDS011;37345;59.828;30.328;2022-10-18T11:27:38;2.88;;;1.20;;
51272;SDS011;37345;59.828;30.328;2022-10-18T11:40:09;2.90;;;0.70;;
51272;SDS011;37345;59.828;30.328;2022-10-18T11:42:46;2.90;;;1.02;;
51272;SDS011;37345;59.828;30.328;2022-10-18T11:53:11;5.55;;;2.55;;
51272;SDS011;37345;59.828;30.328;2022-10-18T11:55:55;5.18;;;2.90;;
51272;SDS011;37345;59.828;30.328;2022-10-18T11:58:34;5.00;;;1.67;;
51272;SDS011;37345;59.828;30.328;2022-10-18T12:01:07;3.60;;;1.33;;
51272;SDS011;37345;59.828;30.328;2022-10-18T12:06:16;2.35;;;1.05;;
51272;SDS011;37345;59.828;30.328;2022-10-18T12:08:45;2.70;;;1.08;;
51272;SDS011;37345;59.828;30.328;2022-10-18T12:11:16;3.95;;;1.00;;
51272;SDS011;37345;59.828;30.328;2022-10-18T12:13:45;2.53;;;0.68;;
51272;SDS011;37345;59.828;30.328;2022-10-18T12:16:12;2.50;;;0.68;;
51272;SDS011;37345;59.828;30.328;2022-10-18T12:21:37;2.40;;;0.50;;
51272;SDS011;37345;59.828;30.328;2022-10-18T12:24:05;0.60;;;0.40;;
51272;SDS011;37345;59.828;30.328;2022-10-18T12:26:32;1.90;;;0.40;;
51272;SDS011;37345;59.828;30.328;2022-10-18T12:33:59;1.33;;;0.50;;
51272;SDS011;37345;59.828;30.328;2022-10-18T12:36:34;3.03;;;0.60;;
51272;SDS011;37345;59.828;30.328;2022-10-18T12:39:06;2.80;;;0.65;;
51272;SDS011;37345;59.828;30.328;2022-10-18T12:41:34;2.60;;;0.90;;
51272;SDS011;37345;59.828;30.328;2022-10-18T12:44:02;1.80;;;0.77;;
51272;SDS011;37345;59.828;30.328;2022-10-18T12:47:03;4.88;;;1.08;;
51272;SDS011;37345;59.828;30.328;2022-10-18T12:51:54;3.35;;;1.73;;
51272;SDS011;37345;59.828;30.328;2022-10-18T12:54:32;5.07;;;2.67;;
51272;SDS011;37345;59.828;30.328;2022-10-18T12:56:59;6.40;;;3.22;;
51272;SDS011;37345;59.828;30.328;2022-10-18T13:09:26;2.35;;;1.30;;
51272;SDS011;37345;59.828;30.328;2022-10-18T13:11:53;2.85;;;1.20;;
51272;SDS011;37345;59.828;30.328;2022-10-18T13:14:24;2.58;;;1.35;;
51272;SDS011;37345;59.828;30.328;2022-10-18T13:22:33;4.05;;;2.17;;
51272;SDS011;37345;59.828;30.328;2022-10-18T13:25:14;2.50;;;1.60;;
51272;SDS011;37345;59.828;30.328;2022-10-18T13:30:21;2.85;;;1.25;;
51272;SDS011;37345;59.828;30.328;2022-10-18T13:32:55;1.92;;;1.10;;
51272;SDS011;37345;59.828;30.328;2022-10-18T13:35:42;1.88;;;0.90;;
51272;SDS011;37345;59.828;30.328;2022-10-18T13:40:58;1.73;;;0.90;;
51272;SDS011;37345;59.828;30.328;2022-10-18T13:46:10;4.13;;;0.88;;
51272;SDS011;37345;59.828;30.328;2022-10-18T13:51:19;5.15;;;1.15;;
51272;SDS011;37345;59.828;30.328;2022-10-18T13:54:02;3.88;;;1.10;;
51272;SDS011;37345;59.828;30.328;2022-10-18T14:01:43;2.55;;;0.95;;
51272;SDS011;37345;59.828;30.328;2022-10-18T14:06:57;4.13;;;2.17;;
51272;SDS011;37345;59.828;30.328;2022-10-18T14:09:25;3.72;;;1.95;;
51272;SDS011;37345;59.828;30.328;2022-10-18T14:12:00;4.63;;;2.30;;
51272;SDS011;37345;59.828;30.328;2022-10-18T14:14:44;7.10;;;2.25;;
51272;SDS011;37345;59.828;30.328;2022-10-18T14:17:22;5.03;;;2.70;;
51272;SDS011;37345;59.828;30.328;2022-10-18T14:19:55;4.78;;;1.70;;
51272;SDS011;37345;59.828;30.328;2022-10-18T14:22:35;5.10;;;1.70;;
51272;SDS011;37345;59.828;30.328;2022-10-18T14:25:16;3.60;;;1.43;;
51272;SDS011;37345;59.828;30.328;2022-10-18T14:27:43;4.20;;;1.42;;
51272;SDS011;37345;59.828;30.328;2022-10-18T14:30:14;4.10;;;1.67;;
51272;SDS011;37345;59.828;30.328;2022-10-18T14:32:45;2.78;;;1.00;;
51272;SDS011;37345;59.828;30.328;2022-10-18T14:35:21;1.55;;;0.90;;
51272;SDS011;37345;59.828;30.328;2022-10-18T14:37:49;1.83;;;0.95;;
51272;SDS011;37345;59.828;30.328;2022-10-18T14:40:32;5.63;;;2.10;;
51272;SDS011;37345;59.828;30.328;2022-10-18T14:43:02;4.60;;;2.40;;
51272;SDS011;37345;59.828;30.328;2022-10-18T14:45:29;4.20;;;1.80;;
51272;SDS011;37345;59.828;30.328;2022-10-18T14:48:03;5.63;;;2.40;;
51272;SDS011;37345;59.828;30.328;2022-10-18T14:50:29;3.33;;;1.50;;
51272;SDS011;37345;59.828;30.328;2022-10-18T14:52:55;2.17;;;1.40;;
51272;SDS011;37345;59.828;30.328;2022-10-18T14:55:22;3.90;;;1.45;;
51272;SDS011;37345;59.828;30.328;2022-10-18T14:57:49;1.45;;;1.33;;
51272;SDS011;37345;59.828;30.328;2022-10-18T15:00:20;2.65;;;1.13;;
51272;SDS011;37345;59.828;30.328;2022-10-18T15:02:47;3.28;;;1.38;;
51272;SDS011;37345;59.828;30.328;2022-10-18T15:05:18;3.45;;;1.60;;
51272;SDS011;37345;59.828;30.328;2022-10-18T15:07:45;6.10;;;3.22;;
51272;SDS011;37345;59.828;30.328;2022-10-18T15:10:32;5.28;;;3.50;;
51272;SDS011;37345;59.828;30.328;2022-10-18T15:12:58;4.38;;;3.00;;
51272;SDS011;37345;59.828;30.328;2022-10-18T15:15:28;3.17;;;1.98;;
51272;SDS011;37345;59.828;30.328;2022-10-18T15:17:55;4.40;;;2.20;;
51272;SDS011;37345;59.828;30.328;2022-10-18T15:20:24;4.20;;;1.95;;
51272;SDS011;37345;59.828;30.328;2022-10-18T15:22:51;7.18;;;4.22;;
51272;SDS011;37345;59.828;30.328;2022-10-18T15:25:21;9.80;;;5.10;;
51272;SDS011;37345;59.828;30.328;2022-10-18T15:27:49;11.63;;;5.63;;
51272;SDS011;37345;59.828;30.328;2022-10-18T15:30:17;9.38;;;4.90;;
51272;SDS011;37345;59.828;30.328;2022-10-18T15:32:51;7.47;;;3.43;;
51272;SDS011;37345;59.828;30.328;2022-10-18T15:35:21;4.07;;;2.23;;
51272;SDS011;37345;59.828;30.328;2022-10-18T15:37:47;3.50;;;1.48;;
51272;SDS011;37345;59.828;30.328;2022-10-18T15:40:24;3.15;;;1.20;;
51272;SDS011;37345;59.828;30.328;2022-10-18T15:42:57;1.90;;;1.00;;
51272;SDS011;37345;59.828;30.328;2022-10-18T15:55:48;3.47;;;1.60;;
51272;SDS011;37345;59.828;30.328;2022-10-18T16:00:45;2.08;;;1.30;;
51272;SDS011;37345;59.828;30.328;2022-10-18T16:03:12;3.30;;;2.00;;
51272;SDS011;37345;59.828;30.328;2022-10-18T16:05:39;2.72;;;1.58;;
51272;SDS011;37345;59.828;30.328;2022-10-18T16:08:05;4.38;;;2.00;;
51272;SDS011;37345;59.828;30.328;2022-10-18T16:10:32;4.00;;;2.03;;
51272;SDS011;37345;59.828;30.328;2022-10-18T16:12:58;2.92;;;1.70;;
51272;SDS011;37345;59.828;30.328;2022-10-18T16:15:24;2.45;;;1.10;;
51272;SDS011;37345;59.828;30.328;2022-10-18T16:17:50;1.95;;;1.00;;
51272;SDS011;37345;59.828;30.328;2022-10-18T16:20:20;2.38;;;1.00;;
51272;SDS011;37345;59.828;30.328;2022-10-18T16:22:52;2.13;;;0.98;;
51272;SDS011;37345;59.828;30.328;2022-10-18T16:25:18;2.85;;;1.20;;
51272;SDS011;37345;59.828;30.328;2022-10-18T16:27:44;2.40;;;1.17;;
51272;SDS011;37345;59.828;30.328;2022-10-18T16:30:12;2.80;;;1.20;;
51272;SDS011;37345;59.828;30.328;2022-10-18T16:32:39;5.53;;;1.35;;
51272;SDS011;37345;59.828;30.328;2022-10-18T16:35:05;4.23;;;1.23;;
51272;SDS011;37345;59.828;30.328;2022-10-18T16:37:33;3.25;;;1.40;;
51272;SDS011;37345;59.828;30.328;2022-10-18T16:40:25;4.55;;;1.95;;
51272;SDS011;37345;59.828;30.328;2022-10-18T16:42:49;3.08;;;1.38;;
51272;SDS011;37345;59.828;30.328;2022-10-18T16:45:16;2.72;;;1.40;;
51272;SDS011;37345;59.828;30.328;2022-10-18T16:47:42;7.28;;;2.00;;
51272;SDS011;37345;59.828;30.328;2022-10-18T16:50:12;4.80;;;2.55;;
51272;SDS011;37345;59.828;30.328;2022-10-18T16:52:39;4.63;;;2.30;;
51272;SDS011;37345;59.828;30.328;2022-10-18T16:55:06;3.45;;;2.00;;
51272;SDS011;37345;59.828;30.328;2022-10-18T16:57:39;3.00;;;1.17;;
51272;SDS011;37345;59.828;30.328;2022-10-18T17:00:07;2.15;;;0.75;;
51272;SDS011;37345;59.828;30.328;2022-10-18T17:02:36;1.63;;;0.80;;
51272;SDS011;37345;59.828;30.328;2022-10-18T17:05:03;1.67;;;0.90;;